Time;durP1;ratioP1;P1;durP2;ratioP2;P2;SDS_P1;SDS_P2;PMS_P1;PMS_P2;Temp;Humidity;BMP_temperature;BMP_pressure;BME280_temperature;BME280_humidity;BME280_pressure;Samples;Min_cycle;Max_cycle;Signal;HPM_P1;HPM_P2
2022/07/26 00:02:13;;;;;;;5.95;4.57;;;26.40;55.40;;;;;;6152512;28;81055;-64
2022/07/26 00:05:14;;;;;;;9.02;4.93;;;26.40;54.80;;;;;;6160905;28;80276;-64
2022/07/26 00:08:14;;;;;;;7.55;4.18;;;26.50;54.50;;;;;;6150487;28;80672;-64
2022/07/26 00:11:15;;;;;;;6.20;3.90;;;26.50;54.40;;;;;;6162184;28;80465;-63
2022/07/26 00:14:15;;;;;;;5.93;4.30;;;26.50;54.50;;;;;;6162453;28;80486;-64
2022/07/26 00:17:16;;;;;;;8.15;4.15;;;26.50;54.50;;;;;;6158838;28;80466;-64
2022/07/26 00:20:16;;;;;;;8.57;4.32;;;26.50;54.40;;;;;;6161670;28;80932;-65
2022/07/26 00:23:18;;;;;;;7.38;4.13;;;26.50;54.50;;;;;;6160458;28;82799;-65
2022/07/26 00:26:18;;;;;;;4.95;3.80;;;26.60;54.40;;;;;;6157496;28;80454;-64
2022/07/26 00:29:19;;;;;;;9.07;4.28;;;26.60;54.30;;;;;;6153160;28;80449;-65
2022/07/26 00:32:19;;;;;;;8.20;3.97;;;26.60;54.40;;;;;;6143879;28;81804;-65
2022/07/26 00:35:20;;;;;;;8.98;4.35;;;26.60;54.30;;;;;;6151342;28;80581;-64
2022/07/26 00:38:20;;;;;;;5.65;3.33;;;26.60;54.30;;;;;;6148053;28;79955;-65
2022/07/26 00:41:21;;;;;;;7.20;3.47;;;26.50;54.50;;;;;;6151154;28;80261;-64
2022/07/26 00:44:21;;;;;;;6.07;4.15;;;26.50;54.50;;;;;;6155765;28;80468;-64
2022/07/26 00:47:22;;;;;;;5.60;3.97;;;26.60;54.40;;;;;;6147102;28;80437;-65
2022/07/26 00:50:22;;;;;;;8.40;4.35;;;26.60;54.20;;;;;;6152654;28;80846;-65
2022/07/26 00:53:23;;;;;;;7.28;4.57;;;26.60;54.10;;;;;;6154559;28;81069;-64
2022/07/26 00:56:23;;;;;;;6.78;4.43;;;26.60;54.00;;;;;;6161284;28;82640;-65
2022/07/26 00:59:24;;;;;;;7.18;4.30;;;26.60;54.50;;;;;;6152792;28;80446;-65
2022/07/26 01:02:24;;;;;;;6.78;4.95;;;26.50;53.50;;;;;;6157410;28;80889;-65
2022/07/26 01:05:25;;;;;;;9.63;4.68;;;26.50;53.30;;;;;;6149759;28;80680;-64
2022/07/26 01:08:25;;;;;;;9.68;4.78;;;26.40;53.30;;;;;;6150774;28;80678;-64
2022/07/26 01:11:26;;;;;;;6.90;4.15;;;26.40;53.60;;;;;;6158623;28;80432;-64
2022/07/26 01:14:26;;;;;;;6.38;4.30;;;26.40;54.00;;;;;;6149707;28;80526;-64
2022/07/26 01:17:27;;;;;;;6.00;4.05;;;26.40;54.20;;;;;;6152602;28;80510;-64
2022/07/26 01:20:27;;;;;;;7.03;4.50;;;26.30;54.50;;;;;;6155636;28;80034;-64
2022/07/26 01:23:29;;;;;;;5.93;3.90;;;26.20;54.80;;;;;;6141198;28;80413;-64
2022/07/26 01:26:30;;;;;;;6.38;4.05;;;26.20;54.90;;;;;;6152375;28;80583;-64
2022/07/26 01:29:30;;;;;;;8.77;3.92;;;26.30;54.80;;;;;;6153763;28;80067;-64
2022/07/26 01:32:31;;;;;;;7.18;4.38;;;26.30;54.70;;;;;;6152254;28;81649;-64
2022/07/26 01:35:31;;;;;;;5.25;3.35;;;26.30;54.70;;;;;;6160234;28;80598;-64
2022/07/26 01:38:32;;;;;;;8.45;3.92;;;26.30;54.70;;;;;;6159317;28;80680;-64
2022/07/26 01:41:32;;;;;;;7.65;4.45;;;26.40;54.60;;;;;;6154301;28;80329;-63
2022/07/26 01:44:33;;;;;;;5.82;3.97;;;26.40;54.60;;;;;;6159028;28;80672;-65
2022/07/26 01:47:33;;;;;;;12.43;4.57;;;26.40;54.50;;;;;;6159780;28;80374;-65
2022/07/26 01:50:34;;;;;;;8.07;4.63;;;26.40;54.40;;;;;;6146529;28;80295;-65
2022/07/26 01:53:34;;;;;;;6.57;4.43;;;26.40;54.50;;;;;;6151408;28;80319;-64
2022/07/26 01:56:35;;;;;;;9.13;4.63;;;26.40;54.50;;;;;;6154253;28;80954;-65
2022/07/26 01:59:35;;;;;;;9.82;3.72;;;26.40;54.50;;;;;;6155039;28;80418;-65
2022/07/26 02:02:36;;;;;;;8.18;4.28;;;26.30;54.50;;;;;;6159880;28;80329;-65
2022/07/26 02:05:36;;;;;;;8.07;4.13;;;26.30;54.80;;;;;;6160015;28;80576;-65
2022/07/26 02:08:37;;;;;;;6.95;4.53;;;26.30;54.80;;;;;;6152608;28;80457;-65
2022/07/26 02:11:37;;;;;;;6.47;3.80;;;26.40;54.70;;;;;;6137067;28;80738;-65
2022/07/26 02:14:37;;;;;;;5.93;4.20;;;26.30;54.70;;;;;;6151750;28;80371;-66
2022/07/26 02:17:38;;;;;;;9.10;4.63;;;26.40;54.60;;;;;;6159869;28;80627;-66
2022/07/26 02:20:38;;;;;;;8.30;4.45;;;26.40;54.60;;;;;;6147002;28;81437;-65
2022/07/26 02:23:39;;;;;;;4.82;3.38;;;26.40;54.60;;;;;;6153894;28;81065;-65
2022/07/26 02:26:39;;;;;;;10.35;4.47;;;26.30;54.60;;;;;;6151787;28;80112;-65
2022/07/26 02:29:40;;;;;;;5.43;3.70;;;26.30;54.80;;;;;;6144139;28;81469;-65
2022/07/26 02:32:42;;;;;;;6.32;3.70;;;26.30;54.90;;;;;;6147461;28;80571;-65
2022/07/26 02:35:43;;;;;;;6.28;3.83;;;26.30;54.90;;;;;;6154258;28;80618;-65
2022/07/26 02:38:43;;;;;;;14.75;4.00;;;26.30;54.90;;;;;;6157012;28;80412;-65
2022/07/26 02:41:43;;;;;;;7.07;4.18;;;26.30;54.90;;;;;;6138888;28;82346;-65
2022/07/26 02:44:44;;;;;;;5.38;3.97;;;26.30;54.90;;;;;;6153022;28;80449;-66
2022/07/26 02:47:44;;;;;;;6.22;4.32;;;26.30;54.90;;;;;;6159371;28;80151;-66
2022/07/26 02:50:45;;;;;;;8.18;4.70;;;26.40;54.90;;;;;;6158247;28;80594;-65
2022/07/26 02:53:46;;;;;;;11.23;3.55;;;26.40;54.80;;;;;;6155427;28;80160;-66
2022/07/26 02:56:46;;;;;;;5.00;3.80;;;26.30;54.80;;;;;;6148876;28;80558;-65
2022/07/26 02:59:46;;;;;;;10.15;4.65;;;26.30;55.00;;;;;;6149596;28;80589;-64
2022/07/26 03:02:48;;;;;;;5.72;3.60;;;26.30;54.90;;;;;;6146251;28;80440;-64
2022/07/26 03:05:48;;;;;;;7.28;4.03;;;26.30;55.10;;;;;;6149852;28;81007;-66
2022/07/26 03:08:49;;;;;;;6.30;3.80;;;26.20;55.10;;;;;;6141437;28;80201;-65
2022/07/26 03:11:49;;;;;;;5.30;3.92;;;26.30;55.20;;;;;;6157435;28;81331;-66
2022/07/26 03:14:49;;;;;;;7.20;4.28;;;26.30;55.80;;;;;;6158555;28;80347;-65
2022/07/26 03:17:50;;;;;;;7.25;4.07;;;26.30;55.20;;;;;;6156735;28;81369;-66
2022/07/26 03:20:50;;;;;;;5.45;4.10;;;26.30;55.10;;;;;;6147744;28;80592;-66
2022/07/26 03:23:51;;;;;;;4.40;3.47;;;26.30;55.00;;;;;;6156659;28;80971;-67
2022/07/26 03:26:51;;;;;;;5.40;4.03;;;26.30;54.90;;;;;;6150050;28;80422;-65
2022/07/26 03:29:52;;;;;;;6.68;4.18;;;26.30;54.80;;;;;;6154260;28;80577;-65
2022/07/26 03:32:53;;;;;;;5.22;4.00;;;26.30;54.80;;;;;;6147480;28;80434;-64
2022/07/26 03:35:53;;;;;;;6.18;4.20;;;26.30;54.80;;;;;;6139913;28;81179;-65
2022/07/26 03:38:54;;;;;;;6.70;4.03;;;26.30;54.70;;;;;;6141429;28;80312;-65
2022/07/26 03:41:54;;;;;;;7.10;3.85;;;26.30;54.70;;;;;;6152142;28;81437;-64
2022/07/26 03:44:54;;;;;;;6.47;4.05;;;26.30;54.80;;;;;;6149955;28;80351;-66
2022/07/26 03:47:55;;;;;;;6.95;4.20;;;26.30;54.80;;;;;;6155638;28;80608;-65
2022/07/26 03:50:55;;;;;;;6.70;4.15;;;26.30;54.80;;;;;;6148802;28;80539;-65
2022/07/26 03:53:56;;;;;;;9.23;3.95;;;26.40;54.70;;;;;;6152801;28;80394;-64
2022/07/26 03:56:56;;;;;;;9.45;4.25;;;26.40;54.70;;;;;;6148110;28;81113;-65
2022/07/26 03:59:57;;;;;;;7.22;4.57;;;26.40;54.80;;;;;;6150062;28;80884;-65
2022/07/26 04:02:57;;;;;;;6.75;4.43;;;26.40;54.70;;;;;;6155255;28;80341;-65
2022/07/26 04:05:58;;;;;;;7.72;4.43;;;26.40;54.60;;;;;;6148810;28;81216;-66
2022/07/26 04:08:58;;;;;;;7.30;4.53;;;26.40;54.70;;;;;;6147734;28;80310;-66
2022/07/26 04:11:59;;;;;;;8.05;3.80;;;26.40;54.80;;;;;;6156304;28;80622;-65
2022/07/26 04:14:59;;;;;;;8.63;5.07;;;26.40;54.70;;;;;;6151952;28;88005;-67
2022/07/26 04:18:00;;;;;;;14.27;5.20;;;26.40;54.70;;;;;;6150108;28;84910;-68
2022/07/26 04:21:00;;;;;;;6.40;4.70;;;26.40;54.80;;;;;;6156074;28;81425;-65
2022/07/26 04:24:01;;;;;;;7.03;4.30;;;26.40;54.90;;;;;;6159036;28;80852;-63
2022/07/26 04:27:01;;;;;;;14.00;4.40;;;26.40;55.20;;;;;;6140722;28;80394;-74
2022/07/26 04:30:01;;;;;;;10.98;4.43;;;26.40;55.10;;;;;;6150999;28;81127;-66
2022/07/26 04:33:02;;;;;;;7.05;4.68;;;26.50;55.20;;;;;;6157653;28;80268;-65
2022/07/26 04:36:02;;;;;;;9.77;4.65;;;26.50;55.30;;;;;;6159332;28;80539;-65
2022/07/26 04:39:03;;;;;;;8.38;4.38;;;26.50;55.30;;;;;;6160331;28;80627;-65
2022/07/26 04:42:03;;;;;;;7.03;4.00;;;26.50;55.30;;;;;;6160717;28;80842;-65
2022/07/26 04:45:04;;;;;;;9.48;4.45;;;26.60;55.70;;;;;;6154237;28;81601;-65
2022/07/26 04:48:05;;;;;;;8.43;4.25;;;26.60;55.50;;;;;;6141910;28;80300;-64
2022/07/26 04:51:05;;;;;;;6.28;3.83;;;26.60;55.60;;;;;;6160885;28;80470;-74
2022/07/26 04:54:06;;;;;;;10.20;4.65;;;26.70;55.40;;;;;;6146078;28;80823;-74
2022/07/26 04:57:06;;;;;;;5.75;4.00;;;26.70;55.50;;;;;;6149429;28;80768;-73
2022/07/26 05:00:07;;;;;;;6.25;4.05;;;26.70;55.60;;;;;;6157368;28;80754;-72
2022/07/26 05:03:07;;;;;;;8.63;4.18;;;26.70;55.60;;;;;;6143385;28;80241;-64
2022/07/26 05:06:08;;;;;;;9.70;4.45;;;26.80;55.40;;;;;;6159117;28;80773;-66
2022/07/26 05:09:09;;;;;;;10.32;5.00;;;26.70;55.50;;;;;;6156441;28;81070;-74
2022/07/26 05:12:10;;;;;;;12.93;4.75;;;26.70;55.50;;;;;;6153447;28;80416;-66
2022/07/26 05:15:10;;;;;;;9.02;4.03;;;26.70;55.60;;;;;;6152496;28;81615;-68
2022/07/26 05:18:11;;;;;;;9.82;4.93;;;26.70;55.40;;;;;;6151653;28;80364;-67
2022/07/26 05:21:11;;;;;;;10.52;4.22;;;26.70;55.30;;;;;;6151969;28;80569;-67
2022/07/26 05:24:12;;;;;;;10.32;4.22;;;26.70;55.10;;;;;;6154500;28;80611;-67
2022/07/26 05:27:12;;;;;;;9.32;4.70;;;26.60;55.00;;;;;;6151093;28;80374;-66
2022/07/26 05:30:13;;;;;;;11.88;4.60;;;26.60;55.00;;;;;;6153020;28;80526;-67
2022/07/26 05:33:13;;;;;;;9.52;4.95;;;26.60;55.00;;;;;;6150172;28;80812;-68
2022/07/26 05:36:14;;;;;;;12.35;6.00;;;26.60;55.00;;;;;;6159414;28;80059;-68
2022/07/26 05:39:14;;;;;;;13.15;5.13;;;26.60;55.30;;;;;;6151689;28;81446;-67
2022/07/26 05:42:15;;;;;;;10.18;5.47;;;26.60;55.60;;;;;;6148593;28;81247;-66
2022/07/26 05:45:15;;;;;;;8.35;4.90;;;26.60;55.50;;;;;;6152213;28;80764;-65
2022/07/26 05:48:16;;;;;;;15.52;5.50;;;26.70;55.50;;;;;;6152000;28;81082;-67
2022/07/26 05:51:16;;;;;;;8.95;5.18;;;26.70;55.70;;;;;;6143403;28;81343;-65
2022/07/26 05:54:17;;;;;;;15.63;6.78;;;26.70;55.70;;;;;;6149437;28;81187;-66
2022/07/26 05:57:18;;;;;;;13.10;6.55;;;26.70;55.70;;;;;;6150249;28;80684;-67
2022/07/26 06:00:19;;;;;;;15.70;6.03;;;26.70;55.90;;;;;;6152701;28;80577;-66
2022/07/26 06:03:23;;;;;;;10.23;5.13;;;26.70;56.20;;;;;;6158416;28;80475;-66
2022/07/26 06:06:23;;;;;;;10.48;5.93;;;26.70;55.90;;;;;;6158391;28;80601;-65
2022/07/26 06:09:24;;;;;;;9.15;5.60;;;26.80;55.80;;;;;;6145019;28;81119;-64
2022/07/26 06:12:24;;;;;;;11.27;5.85;;;26.80;55.90;;;;;;6145717;28;80420;-68
2022/07/26 06:15:25;;;;;;;9.93;4.60;;;26.80;56.00;;;;;;6147819;28;86149;-67
2022/07/26 06:18:25;;;;;;;12.73;5.00;;;26.80;55.80;;;;;;6148758;28;80378;-65
2022/07/26 06:21:26;;;;;;;11.35;5.20;;;26.90;55.90;;;;;;6156440;28;80516;-67
2022/07/26 06:24:26;;;;;;;10.30;4.68;;;26.90;56.20;;;;;;6155257;28;80543;-63
2022/07/26 06:27:27;;;;;;;11.63;5.80;;;26.90;56.20;;;;;;6153770;28;80725;-68
2022/07/26 06:30:27;;;;;;;14.85;5.93;;;26.80;56.50;;;;;;6149304;28;80556;-67
2022/07/26 06:33:28;;;;;;;10.60;5.65;;;26.80;56.60;;;;;;6152933;28;81097;-69
2022/07/26 06:36:28;;;;;;;14.98;5.88;;;26.80;56.80;;;;;;6155809;28;80766;-68
2022/07/26 06:39:31;;;;;;;11.07;6.00;;;26.80;56.60;;;;;;6155926;28;81400;-66
2022/07/26 06:42:32;;;;;;;10.48;5.80;;;26.80;56.50;;;;;;6165941;28;81603;-70
2022/07/26 06:45:32;;;;;;;14.38;5.30;;;26.80;57.80;;;;;;6146840;28;80403;-69
2022/07/26 06:48:33;;;;;;;24.30;5.75;;;26.70;57.90;;;;;;6155716;28;81627;-70
2022/07/26 06:51:33;;;;;;;17.27;5.80;;;26.70;58.00;;;;;;6153537;28;81489;-67
2022/07/26 06:54:34;;;;;;;17.08;6.00;;;26.70;58.00;;;;;;6155734;28;80218;-66
2022/07/26 06:57:34;;;;;;;8.13;4.82;;;26.60;57.90;;;;;;6148491;28;80291;-72
2022/07/26 07:00:35;;;;;;;10.77;5.40;;;26.60;57.90;;;;;;6152217;28;81402;-75
2022/07/26 07:03:35;;;;;;;10.35;5.55;;;26.60;58.00;;;;;;6149014;28;80403;-67
2022/07/26 07:06:36;;;;;;;11.05;5.15;;;26.60;58.10;;;;;;6126095;28;80625;-67
2022/07/26 07:09:36;;;;;;;14.05;5.82;;;26.60;58.00;;;;;;6130002;28;80439;-67
2022/07/26 07:12:38;;;;;;;9.95;5.45;;;26.50;58.10;;;;;;6147489;28;81214;-76
2022/07/26 07:15:39;;;;;;;13.85;5.30;;;26.60;58.10;;;;;;6133290;28;80362;-66
2022/07/26 07:18:39;;;;;;;11.82;5.00;;;26.60;58.20;;;;;;6127169;28;83656;-67
2022/07/26 07:21:40;;;;;;;11.57;5.22;;;26.60;58.20;;;;;;6124597;28;80681;-67
2022/07/26 07:24:40;;;;;;;14.02;5.35;;;26.60;58.60;;;;;;6127089;28;80505;-67
2022/07/26 07:27:41;;;;;;;15.30;5.65;;;26.60;58.50;;;;;;6146482;28;80891;-67
2022/07/26 07:30:41;;;;;;;15.95;7.22;;;26.70;58.80;;;;;;6158581;28;81104;-67
2022/07/26 07:33:42;;;;;;;12.98;6.53;;;26.70;59.00;;;;;;6152144;28;80553;-67
2022/07/26 07:36:42;;;;;;;13.18;6.55;;;26.60;59.10;;;;;;6156639;28;80309;-66
2022/07/26 07:39:43;;;;;;;11.93;6.53;;;26.70;59.50;;;;;;6158285;28;80567;-67
2022/07/26 07:42:43;;;;;;;11.20;6.45;;;26.70;59.80;;;;;;6144116;28;80293;-67
2022/07/26 07:45:44;;;;;;;9.35;6.38;;;26.70;59.70;;;;;;6149621;28;80214;-66
2022/07/26 07:48:44;;;;;;;13.80;6.47;;;26.70;59.80;;;;;;6161097;28;80964;-67
2022/07/26 07:51:45;;;;;;;12.43;6.75;;;26.80;59.70;;;;;;6153554;28;80392;-67
2022/07/26 07:54:45;;;;;;;14.60;7.50;;;26.90;59.60;;;;;;6154318;28;80861;-67
2022/07/26 07:57:45;;;;;;;10.15;6.60;;;26.90;59.50;;;;;;6155593;28;80850;-67
2022/07/26 08:00:46;;;;;;;13.88;7.88;;;27.00;59.20;;;;;;6154515;28;80791;-66
2022/07/26 08:03:47;;;;;;;14.57;7.03;;;27.00;59.20;;;;;;6153707;28;80623;-68
2022/07/26 08:06:47;;;;;;;11.75;6.90;;;27.00;58.90;;;;;;6163659;28;80440;-67
2022/07/26 08:09:48;;;;;;;16.50;7.55;;;27.00;58.80;;;;;;6156714;28;80734;-70
2022/07/26 08:12:48;;;;;;;12.68;7.10;;;27.00;58.70;;;;;;6153607;28;80327;-68
2022/07/26 08:15:49;;;;;;;12.50;6.18;;;27.00;59.20;;;;;;6154202;28;80598;-67
2022/07/26 08:18:49;;;;;;;17.42;7.07;;;26.90;59.60;;;;;;6149677;28;80405;-69
2022/07/26 08:21:50;;;;;;;13.40;7.63;;;27.00;59.90;;;;;;6146503;28;80564;-66
2022/07/26 08:24:51;;;;;;;10.52;6.78;;;27.00;60.00;;;;;;6149122;28;81917;-67
2022/07/26 08:27:51;;;;;;;14.80;6.45;;;27.00;60.00;;;;;;6154144;28;80837;-68
2022/07/26 08:30:52;;;;;;;11.05;6.53;;;27.00;60.30;;;;;;6157954;28;82083;-68
2022/07/26 08:33:52;;;;;;;13.15;7.68;;;27.00;60.10;;;;;;6146011;28;80042;-68
2022/07/26 08:36:53;;;;;;;14.82;7.95;;;27.00;60.60;;;;;;6149847;28;80568;-67
2022/07/26 08:39:53;;;;;;;11.25;7.35;;;27.00;60.50;;;;;;6142748;28;80314;-67
2022/07/26 08:42:54;;;;;;;14.02;7.22;;;27.00;61.00;;;;;;6143595;28;80978;-67
2022/07/26 08:45:54;;;;;;;11.52;6.65;;;27.00;61.40;;;;;;6141124;28;80696;-67
2022/07/26 08:48:55;;;;;;;16.20;7.80;;;27.00;61.40;;;;;;6145802;28;80861;-68
2022/07/26 08:51:58;;;;;;;11.32;7.55;;;27.00;62.00;;;;;;6152582;28;80224;-67
2022/07/26 08:54:58;;;;;;;11.48;8.32;;;26.90;62.20;;;;;;6160045;28;80924;-76
2022/07/26 08:57:58;;;;;;;14.18;8.75;;;26.90;62.40;;;;;;6148467;28;80382;-67
2022/07/26 09:00:59;;;;;;;12.10;9.02;;;26.80;62.90;;;;;;6148951;28;80348;-67
2022/07/26 09:03:59;;;;;;;18.48;8.90;;;26.80;62.80;;;;;;6161617;28;80225;-67
2022/07/26 09:07:00;;;;;;;18.83;9.32;;;26.80;63.20;;;;;;6158584;28;80472;-69
2022/07/26 09:10:00;;;;;;;25.85;10.57;;;26.80;63.60;;;;;;6156293;28;80873;-68
2022/07/26 09:13:01;;;;;;;18.17;8.77;;;26.50;64.60;;;;;;6140802;28;83053;-67
2022/07/26 09:16:01;;;;;;;15.60;9.95;;;26.70;64.50;;;;;;6142681;28;82819;-68
2022/07/26 09:19:02;;;;;;;13.57;9.63;;;26.60;64.60;;;;;;6144789;28;81994;-67
2022/07/26 09:22:02;;;;;;;14.35;9.70;;;26.60;64.90;;;;;;6145371;28;80448;-67
2022/07/26 09:25:03;;;;;;;22.58;11.98;;;26.70;64.80;;;;;;6154397;28;80518;-68
2022/07/26 09:28:03;;;;;;;12.35;9.55;;;26.60;64.90;;;;;;6142388;28;82904;-67
2022/07/26 09:31:04;;;;;;;16.38;10.48;;;26.50;65.30;;;;;;6149655;28;83065;-67
2022/07/26 09:34:04;;;;;;;15.65;10.52;;;26.50;65.30;;;;;;6151086;28;82859;-68
2022/07/26 09:37:05;;;;;;;16.48;10.27;;;26.60;65.20;;;;;;6151847;28;82855;-68
2022/07/26 09:40:05;;;;;;;13.75;9.68;;;26.70;65.20;;;;;;6150088;28;83800;-68
2022/07/26 09:43:06;;;;;;;16.10;10.70;;;26.70;64.90;;;;;;6143891;28;81632;-66
2022/07/26 09:46:06;;;;;;;13.43;10.18;;;26.70;64.90;;;;;;6155317;28;83086;-68
2022/07/26 09:49:07;;;;;;;12.75;8.85;;;26.80;64.90;;;;;;6150518;28;83111;-67
2022/07/26 09:52:07;;;;;;;15.00;9.80;;;26.70;64.90;;;;;;6145702;28;81697;-67
2022/07/26 09:55:08;;;;;;;12.63;10.10;;;26.60;65.60;;;;;;6143395;28;81439;-65
2022/07/26 09:58:08;;;;;;;17.10;10.95;;;26.50;66.10;;;;;;6138329;28;83176;-68
2022/07/26 10:01:09;;;;;;;17.63;13.20;;;26.50;65.90;;;;;;6146011;28;83081;-69
2022/07/26 10:04:09;;;;;;;17.17;11.73;;;26.40;66.50;;;;;;6143909;28;84026;-69
2022/07/26 10:07:10;;;;;;;19.50;12.32;;;26.20;66.90;;;;;;6137554;28;83136;-68
2022/07/26 10:10:10;;;;;;;14.80;11.95;;;25.90;68.30;;;;;;6136536;28;83462;-68
2022/07/26 10:13:11;;;;;;;18.75;12.35;;;25.90;68.30;;;;;;6139884;28;84271;-67
2022/07/26 10:16:12;;;;;;;12.65;10.25;;;25.60;69.60;;;;;;6141301;28;83510;-68
2022/07/26 10:19:12;;;;;;;18.30;12.20;;;25.80;69.20;;;;;;6141463;28;83647;-68
2022/07/26 10:22:13;;;;;;;16.70;12.68;;;25.80;69.20;;;;;;6134606;28;83595;-73
2022/07/26 10:25:13;;;;;;;16.67;12.63;;;25.60;69.70;;;;;;6144277;28;83707;-67
2022/07/26 10:28:14;;;;;;;15.98;11.70;;;25.60;69.90;;;;;;6137723;28;83101;-67
2022/07/26 10:31:14;;;;;;;15.20;11.23;;;25.60;69.90;;;;;;6141714;28;82864;-67
2022/07/26 10:34:15;;;;;;;16.77;11.85;;;25.70;69.40;;;;;;6143621;28;84515;-67
2022/07/26 10:37:15;;;;;;;17.73;13.65;;;25.90;68.60;;;;;;6139434;28;83893;-66
2022/07/26 10:40:16;;;;;;;18.58;13.20;;;25.90;68.60;;;;;;6136985;28;83953;-66
2022/07/26 10:43:17;;;;;;;18.20;13.15;;;25.90;68.70;;;;;;6136975;28;83472;-67
2022/07/26 10:46:17;;;;;;;18.95;12.40;;;26.00;67.90;;;;;;6143279;28;83718;-67
2022/07/26 10:49:18;;;;;;;12.95;10.07;;;26.00;67.80;;;;;;6144717;28;83530;-69
2022/07/26 10:52:18;;;;;;;15.10;12.18;;;26.10;67.70;;;;;;6142612;28;83212;-68
2022/07/26 10:55:19;;;;;;;15.80;10.73;;;26.10;67.20;;;;;;6150540;28;83153;-68
2022/07/26 10:58:20;;;;;;;15.40;11.00;;;26.10;67.10;;;;;;6136214;28;83191;-67
2022/07/26 11:01:20;;;;;;;24.23;11.45;;;26.10;67.00;;;;;;6125083;28;84906;-67
2022/07/26 11:04:20;;;;;;;16.35;12.43;;;26.20;66.90;;;;;;6139889;28;83988;-68
2022/07/26 11:07:21;;;;;;;14.40;11.57;;;26.10;67.20;;;;;;6145363;28;83238;-68
2022/07/26 11:10:22;;;;;;;18.77;12.10;;;26.10;67.20;;;;;;6137152;28;83302;-67
2022/07/26 11:13:22;;;;;;;17.70;12.75;;;26.20;66.80;;;;;;6125524;28;82935;-67
2022/07/26 11:16:23;;;;;;;18.40;13.02;;;26.40;66.40;;;;;;6120742;28;83245;-67
2022/07/26 11:19:24;;;;;;;21.33;14.60;;;26.40;66.10;;;;;;6137335;28;83622;-67
2022/07/26 11:22:25;;;;;;;18.92;14.38;;;26.30;66.90;;;;;;6142513;28;83533;-66
2022/07/26 11:25:25;;;;;;;18.85;14.35;;;26.30;66.90;;;;;;6149508;28;83213;-67
2022/07/26 11:28:26;;;;;;;18.17;14.13;;;26.40;66.40;;;;;;6149215;28;86077;-67
2022/07/26 11:31:27;;;;;;;23.42;15.57;;;26.40;66.40;;;;;;6148241;28;83479;-67
2022/07/26 11:34:28;;;;;;;20.05;14.25;;;26.50;66.00;;;;;;6152157;28;84318;-66
2022/07/26 11:37:28;;;;;;;24.23;15.88;;;26.60;66.20;;;;;;6150770;28;83367;-67
2022/07/26 11:40:29;;;;;;;20.23;14.45;;;26.50;67.00;;;;;;6155062;28;84301;-65
2022/07/26 11:43:29;;;;;;;19.77;13.88;;;26.50;66.40;;;;;;6159329;28;83067;-68
2022/07/26 11:46:30;;;;;;;18.73;13.15;;;26.50;66.70;;;;;;6151568;28;83136;-67
2022/07/26 11:49:30;;;;;;;15.90;12.35;;;26.40;67.20;;;;;;6149836;28;84181;-68
2022/07/26 11:52:31;;;;;;;14.48;11.30;;;26.40;67.10;;;;;;6158241;28;83323;-68
2022/07/26 11:55:31;;;;;;;18.58;11.23;;;26.50;67.30;;;;;;6152717;28;83140;-68
2022/07/26 11:58:32;;;;;;;17.77;12.27;;;26.50;67.20;;;;;;6153266;28;85044;-68
2022/07/26 12:01:32;;;;;;;15.27;10.60;;;26.50;66.70;;;;;;6152961;28;83494;-69
2022/07/26 12:04:33;;;;;;;13.80;10.70;;;26.60;66.00;;;;;;6151541;28;84080;-66
2022/07/26 12:07:33;;;;;;;19.25;10.50;;;26.70;65.80;;;;;;6150748;28;84282;-66
2022/07/26 12:10:34;;;;;;;14.52;9.30;;;26.70;65.40;;;;;;6146600;28;82790;-67
2022/07/26 12:13:34;;;;;;;13.65;9.38;;;26.70;65.80;;;;;;6142728;28;82960;-66
2022/07/26 12:16:35;;;;;;;13.13;9.18;;;26.70;65.40;;;;;;6152386;28;80687;-66
2022/07/26 12:19:35;;;;;;;14.20;9.05;;;26.70;65.90;;;;;;6160081;28;80503;-63
2022/07/26 12:22:36;;;;;;;14.02;7.93;;;26.70;65.90;;;;;;6144559;28;80785;-64
2022/07/26 12:25:36;;;;;;;13.43;8.50;;;26.60;66.50;;;;;;6151420;28;80801;-65
2022/07/26 12:28:37;;;;;;;15.23;8.68;;;26.70;66.60;;;;;;6145946;28;80549;-64
2022/07/26 12:31:37;;;;;;;10.88;7.95;;;26.60;66.60;;;;;;6152167;28;81135;-65
2022/07/26 12:34:38;;;;;;;13.30;8.02;;;26.60;66.90;;;;;;6155943;28;80880;-65
2022/07/26 12:37:39;;;;;;;11.13;7.50;;;26.70;66.80;;;;;;6158884;28;80063;-63
2022/07/26 12:40:39;;;;;;;10.77;7.82;;;26.70;66.90;;;;;;6150212;28;81268;-70
2022/07/26 12:43:40;;;;;;;10.93;7.63;;;26.70;67.30;;;;;;6145695;28;80476;-64
2022/07/26 12:46:40;;;;;;;10.57;8.88;;;26.70;67.50;;;;;;6148539;28;80938;-69
2022/07/26 12:49:41;;;;;;;11.57;8.45;;;26.70;68.30;;;;;;6146182;28;80907;-69
2022/07/26 12:52:41;;;;;;;14.48;10.38;;;26.60;68.50;;;;;;6151171;28;80443;-70
2022/07/26 12:55:42;;;;;;;11.43;8.57;;;26.60;68.90;;;;;;6154444;28;83241;-72
2022/07/26 12:58:42;;;;;;;13.27;9.38;;;26.60;69.40;;;;;;6161480;28;82928;-68
2022/07/26 13:01:42;;;;;;;16.20;11.63;;;26.70;69.30;;;;;;6152626;28;81886;-68
2022/07/26 13:04:43;;;;;;;18.52;12.55;;;26.50;70.30;;;;;;6153485;28;83029;-68
2022/07/26 13:07:44;;;;;;;18.50;13.18;;;26.40;71.10;;;;;;6146615;28;83182;-68
2022/07/26 13:10:44;;;;;;;17.45;12.75;;;26.40;71.70;;;;;;6152676;28;83028;-68
2022/07/26 13:13:45;;;;;;;18.15;11.80;;;26.40;72.90;;;;;;6153972;28;83176;-68
2022/07/26 13:16:45;;;;;;;15.10;12.60;;;26.20;73.40;;;;;;6143790;28;83479;-68
2022/07/26 13:19:46;;;;;;;19.50;12.50;;;26.10;74.40;;;;;;6147598;28;83964;-64
2022/07/26 13:22:46;;;;;;;16.58;11.50;;;26.10;74.60;;;;;;6146212;28;83207;-73
2022/07/26 13:25:47;;;;;;;18.38;11.35;;;26.20;74.20;;;;;;6140691;28;82975;-68
2022/07/26 13:28:47;;;;;;;17.38;11.52;;;26.40;74.10;;;;;;6139545;28;84120;-68
2022/07/26 13:31:49;;;;;;;14.30;10.43;;;26.40;73.70;;;;;;6150483;28;83698;-65
2022/07/26 13:34:50;;;;;;;12.27;9.43;;;26.40;74.10;;;;;;6153276;28;83174;-66
2022/07/26 13:37:50;;;;;;;14.13;10.00;;;26.50;73.60;;;;;;6158246;28;82744;-65
2022/07/26 13:40:51;;;;;;;12.70;9.05;;;26.60;73.40;;;;;;6146353;28;82698;-66
2022/07/26 13:43:52;;;;;;;15.00;8.43;;;26.60;71.80;;;;;;6147618;28;83332;-66
2022/07/26 13:46:53;;;;;;;13.73;6.75;;;26.60;71.80;;;;;;6149842;28;81344;-66
2022/07/26 13:49:54;;;;;;;7.18;5.25;;;26.60;71.70;;;;;;6156578;28;81487;-64
2022/07/26 13:52:54;;;;;;;6.50;5.20;;;26.60;71.30;;;;;;6158770;28;81108;-64
2022/07/26 13:55:55;;;;;;;5.68;4.03;;;26.60;71.60;;;;;;6147696;28;80438;-67
2022/07/26 13:58:55;;;;;;;8.98;4.43;;;26.50;70.30;;;;;;6146326;28;81443;-66
2022/07/26 14:01:56;;;;;;;9.30;3.97;;;26.50;70.20;;;;;;6146022;28;80510;-64
2022/07/26 14:04:56;;;;;;;4.03;3.17;;;26.40;69.50;;;;;;6148070;28;80552;-65
2022/07/26 14:07:57;;;;;;;5.93;4.13;;;26.40;70.00;;;;;;6155560;28;80387;-66
2022/07/26 14:10:57;;;;;;;8.43;3.80;;;26.40;69.80;;;;;;6150741;28;80368;-67
2022/07/26 14:13:58;;;;;;;4.28;3.50;;;26.40;69.70;;;;;;6142659;28;81088;-66
2022/07/26 14:16:58;;;;;;;6.10;3.55;;;26.40;69.10;;;;;;6125643;28;81790;-66
2022/07/26 14:19:59;;;;;;;5.53;3.70;;;26.40;68.20;;;;;;6119282;28;80067;-66
2022/07/26 14:22:59;;;;;;;5.20;3.33;;;26.40;67.80;;;;;;6135666;28;80516;-65
2022/07/26 14:26:00;;;;;;;5.05;2.60;;;26.40;67.90;;;;;;6150616;28;80529;-66
2022/07/26 14:29:00;;;;;;;7.75;2.90;;;26.50;68.20;;;;;;6156298;28;80349;-67
2022/07/26 14:32:01;;;;;;;3.53;2.75;;;26.50;67.80;;;;;;6150265;28;80398;-69
2022/07/26 14:35:02;;;;;;;6.18;3.60;;;26.60;67.90;;;;;;6142245;28;81163;-66
2022/07/26 14:38:02;;;;;;;5.63;3.05;;;26.60;68.00;;;;;;6138683;28;80891;-68
2022/07/26 14:41:03;;;;;;;4.75;3.25;;;26.60;68.10;;;;;;6137131;28;80701;-68
2022/07/26 14:44:03;;;;;;;4.93;3.40;;;26.70;68.10;;;;;;6148929;28;81882;-67
2022/07/26 14:47:04;;;;;;;5.90;3.20;;;26.70;67.80;;;;;;6142114;28;80507;-67
2022/07/26 14:50:04;;;;;;;5.28;3.35;;;26.70;67.70;;;;;;6143893;28;80772;-66
2022/07/26 14:53:05;;;;;;;6.35;3.17;;;26.70;67.70;;;;;;6143092;28;80361;-67
2022/07/26 14:56:05;;;;;;;5.68;3.75;;;26.70;68.30;;;;;;6143102;28;81715;-67
2022/07/26 14:59:06;;;;;;;5.57;4.10;;;26.80;67.40;;;;;;6143771;28;81734;-66
2022/07/26 15:02:06;;;;;;;5.28;3.70;;;26.80;67.00;;;;;;6144920;28;81350;-67
2022/07/26 15:05:07;;;;;;;8.55;3.67;;;26.80;66.90;;;;;;6141275;28;81607;-68
2022/07/26 15:08:07;;;;;;;5.82;3.83;;;26.80;67.90;;;;;;6150812;28;81490;-67
2022/07/26 15:11:08;;;;;;;7.13;3.20;;;26.90;67.90;;;;;;6150149;28;80398;-68
2022/07/26 15:14:08;;;;;;;8.32;3.38;;;26.90;67.90;;;;;;6143449;28;80752;-67
2022/07/26 15:17:09;;;;;;;4.50;3.38;;;26.90;67.80;;;;;;6137610;28;80380;-66
2022/07/26 15:20:09;;;;;;;7.78;3.75;;;26.80;67.40;;;;;;6141967;28;80884;-67
2022/07/26 15:23:10;;;;;;;7.60;2.83;;;26.80;67.40;;;;;;6142304;28;81505;-68
2022/07/26 15:26:11;;;;;;;4.60;3.13;;;26.80;67.50;;;;;;6144715;28;81000;-67
2022/07/26 15:29:11;;;;;;;9.88;4.45;;;26.80;67.70;;;;;;6140824;28;80616;-67